Time;durP1;ratioP1;P1;durP2;ratioP2;P2;SDS_P1;SDS_P2;PMS_P1;PMS_P2;Temp;Humidity;BMP_temperature;BMP_pressure;BME280_temperature;BME280_humidity;BME280_pressure;Samples;Min_cycle;Max_cycle;Signal;HPM_P1;HPM_P2
2023/12/10 00:03:29;;;;;;;;;;;7.50;60.20;;;6.02;63.20;99673.44;12247249;19;19950;-87
2023/12/10 00:07:31;;;;;;;;;;;7.50;60.60;;;6.01;63.43;99682.16;12247111;19;20345;-87
2023/12/10 00:11:32;;;;;;;;;;;7.50;60.30;;;6.04;63.38;99666.44;12243509;19;19931;-87
2023/12/10 00:15:34;;;;;;;;;;;7.50;60.00;;;5.97;63.43;99661.59;12248288;19;19922;-87
2023/12/10 00:19:36;;;;;;;;;;;7.60;60.10;;;5.99;63.24;99664.09;12245457;19;19921;-87
2023/12/10 00:23:38;;;;;;;;;;;7.50;60.10;;;5.94;63.42;99651.41;12245120;19;19942;-87
2023/12/10 00:27:40;;;;;;;;;;;7.50;60.10;;;6.03;63.25;99670.78;12244846;19;19925;-87
2023/12/10 00:31:42;;;;;;;;;;;7.50;59.90;;;6.11;63.26;99691.13;12244318;19;19930;-87
2023/12/10 00:35:44;;;;;;;;;;;7.50;59.90;;;6.00;63.32;99672.72;12247791;19;20380;-87
2023/12/10 00:39:46;;;;;;;;;;;7.60;60.00;;;5.84;63.16;99628.63;12244637;19;19930;-87
2023/12/10 00:43:48;;;;;;;;;;;7.60;60.20;;;6.11;63.23;99671.22;12247815;19;20314;-87
2023/12/10 00:47:49;;;;;;;;;;;7.60;59.90;;;6.10;63.21;99669.56;12243574;19;19983;-87
2023/12/10 00:51:51;;;;;;;;;;;7.60;59.90;;;5.86;63.22;99627.63;12242349;19;19918;-87
2023/12/10 00:55:52;;;;;;;;;;;7.60;59.90;;;6.00;63.27;99646.81;12244528;19;19915;-86
2023/12/10 00:59:54;;;;;;;;;;;7.60;59.80;;;6.12;63.34;99674.63;12242382;19;19917;-87
2023/12/10 01:03:55;;;;;;;;;;;7.60;59.70;;;6.09;63.36;99644.53;12245465;19;19915;-87
2023/12/10 01:07:57;;;;;;;;;;;7.60;60.70;;;6.02;63.20;99647.53;12250640;19;19923;-86
2023/12/10 01:11:58;;;;;;;;;;;7.60;60.00;;;5.79;63.42;99618.50;12254284;19;19919;-87
2023/12/10 01:16:00;;;;;;;;;;;7.50;60.10;;;5.88;63.49;99630.13;12257796;19;19919;-86
2023/12/10 01:20:03;;;;;;;;;;;7.50;60.10;;;5.94;63.49;99640.16;12256686;19;19942;-87
2023/12/10 01:24:06;;;;;;;;;;;7.50;60.20;;;5.90;63.34;99631.69;12256752;19;20265;-86
2023/12/10 01:28:08;;;;;;;;;;;7.50;60.00;;;6.04;63.26;99654.31;12253238;19;19917;-87
2023/12/10 01:32:13;;;;;;;;;;;7.50;59.90;;;5.81;63.25;99618.44;12249397;19;19982;-86
2023/12/10 01:36:22;;;;;;;;;;;7.50;59.90;;;6.04;63.44;99656.91;12255644;19;20255;-87
2023/12/10 01:40:24;;;;;;;;;;;7.50;59.90;;;5.95;63.44;99647.88;12252116;19;19919;-86
2023/12/10 01:44:26;;;;;;;;;;;7.60;60.00;;;6.08;63.34;99668.78;12254003;19;19918;-86
2023/12/10 01:48:28;;;;;;;;;;;7.60;59.80;;;5.96;63.21;99654.72;12252302;19;19926;-87
2023/12/10 01:52:34;;;;;;;;;;;7.60;59.80;;;5.99;63.36;99658.91;12246096;19;19929;-87
2023/12/10 01:56:36;;;;;;;;;;;7.50;59.90;;;5.94;63.44;99653.13;12253035;19;20066;-87
2023/12/10 02:00:38;;;;;;;;;;;7.60;60.10;;;6.01;63.20;99669.19;12249825;19;20337;-87
2023/12/10 02:04:40;;;;;;;;;;;7.50;60.10;;;5.88;63.45;99656.03;12252689;19;19942;-87
2023/12/10 02:08:41;;;;;;;;;;;7.50;60.20;;;5.81;63.26;99654.69;12250792;19;19998;-87
2023/12/10 02:12:43;;;;;;;;;;;7.50;60.00;;;5.99;63.40;99684.81;12252713;19;19923;-87
2023/12/10 02:16:45;;;;;;;;;;;7.50;60.40;;;5.81;63.43;99671.06;12253258;19;19919;-87
2023/12/10 02:20:48;;;;;;;;;;;7.50;60.00;;;5.96;63.30;99697.94;12247455;19;19951;-87
2023/12/10 02:24:58;;;;;;;;;;;7.50;60.10;;;5.89;63.52;99678.44;12251724;19;19919;-87
2023/12/10 02:29:00;;;;;;;;;;;7.50;60.00;;;5.76;63.15;99652.34;12248816;19;19919;-87
2023/12/10 02:33:02;;;;;;;;;;;7.50;60.10;;;5.94;63.38;99673.84;12253029;19;19930;-87
2023/12/10 02:37:04;;;;;;;;;;;7.40;59.90;;;5.88;63.28;99667.22;12247104;19;19915;-87
2023/12/10 02:41:06;;;;;;;;;;;7.40;59.90;;;5.81;63.45;99660.69;12248991;19;19914;-87
2023/12/10 02:45:07;;;;;;;;;;;7.40;59.80;;;5.81;63.39;99675.41;12252329;19;20262;-86
2023/12/10 02:49:09;;;;;;;;;;;7.40;60.00;;;5.89;63.46;99696.56;12248245;19;19935;-87
2023/12/10 02:53:10;;;;;;;;;;;7.40;59.80;;;5.74;63.24;99662.75;12252268;19;19974;-87
2023/12/10 02:57:11;;;;;;;;;;;7.40;59.80;;;5.81;63.33;99684.03;12252438;19;19978;-87
2023/12/10 03:01:13;;;;;;;;;;;7.30;59.80;;;5.83;63.23;99702.88;12249667;19;19919;-86
2023/12/10 03:05:14;;;;;;;;;;;7.30;59.80;;;5.81;63.48;99699.56;12252356;19;19919;-87
2023/12/10 03:09:16;;;;;;;;;;;7.30;59.70;;;5.75;63.32;99687.75;12247406;19;19919;-87
2023/12/10 03:13:18;;;;;;;;;;;7.30;59.70;;;5.73;63.27;99687.00;12247096;19;19911;-86
2023/12/10 03:17:19;;;;;;;;;;;7.20;59.70;;;5.81;63.40;99701.31;12248504;19;19925;-86
2023/12/10 03:21:21;;;;;;;;;;;7.30;59.80;;;5.71;63.21;99686.25;12245751;19;20358;-86
2023/12/10 03:25:23;;;;;;;;;;;7.20;59.70;;;5.58;63.49;99680.00;12247894;19;19925;-86
2023/12/10 03:29:25;;;;;;;;;;;7.30;59.80;;;5.70;63.52;99699.28;12243138;19;19918;-86
2023/12/10 03:33:26;;;;;;;;;;;7.30;59.90;;;5.79;63.39;99721.28;12246644;19;19921;-86
2023/12/10 03:37:28;;;;;;;;;;;7.20;59.90;;;5.76;63.24;99717.91;12248510;19;19926;-86
2023/12/10 03:41:30;;;;;;;;;;;7.20;59.80;;;5.65;63.26;99699.50;12244132;19;19926;-85
2023/12/10 03:45:31;;;;;;;;;;;7.20;59.80;;;5.82;63.33;99726.28;12246458;19;19922;-86
2023/12/10 03:49:33;;;;;;;;;;;7.30;59.80;;;5.81;63.43;99728.06;12245260;19;19953;-86
2023/12/10 03:53:34;;;;;;;;;;;7.30;59.80;;;5.81;63.47;99735.00;12246833;19;19978;-86
2023/12/10 03:57:36;;;;;;;;;;;7.20;59.80;;;5.72;63.28;99713.81;12246243;19;19915;-86
2023/12/10 04:01:42;;;;;;;;;;;7.30;59.80;;;5.78;63.30;99720.44;12243653;19;19915;-86
2023/12/10 04:05:44;;;;;;;;;;;7.30;59.80;;;5.70;63.49;99709.66;12247145;19;19915;-86
2023/12/10 04:09:45;;;;;;;;;;;7.30;59.80;;;5.76;63.25;99725.69;12243895;19;19922;-86
2023/12/10 04:13:47;;;;;;;;;;;7.30;59.80;;;5.62;63.19;99704.03;12245134;19;19970;-86
2023/12/10 04:17:49;;;;;;;;;;;7.30;59.80;;;5.81;63.44;99745.34;12246332;19;19919;-86
2023/12/10 04:21:51;;;;;;;;;;;7.30;59.70;;;5.39;63.35;99679.28;12242120;19;20249;-86
2023/12/10 04:25:52;;;;;;;;;;;7.30;59.70;;;5.85;63.37;99745.09;12244871;19;20330;-86
2023/12/10 04:29:54;;;;;;;;;;;7.30;59.70;;;5.77;63.40;99750.66;12241930;19;19910;-86
2023/12/10 04:33:56;;;;;;;;;;;7.40;59.80;;;5.87;63.19;99755.41;12245946;19;19918;-86
2023/12/10 04:37:57;;;;;;;;;;;7.30;59.70;;;5.57;63.18;99709.44;12246298;19;20274;-86
2023/12/10 04:41:59;;;;;;;;;;;7.30;59.80;;;5.82;63.43;99747.03;12246336;19;19940;-86
2023/12/10 04:46:01;;;;;;;;;;;7.30;59.80;;;5.81;63.41;99756.56;12258314;19;20360;-86
2023/12/10 04:50:03;;;;;;;;;;;7.40;59.80;;;5.81;63.26;99760.91;12256765;19;20335;-86
2023/12/10 04:54:05;;;;;;;;;;;7.40;59.80;;;5.91;63.38;99775.03;12258171;19;19911;-86
2023/12/10 04:58:07;;;;;;;;;;;7.30;59.80;;;5.80;63.25;99757.44;12258284;19;19914;-86
2023/12/10 05:02:09;;;;;;;;;;;7.30;59.80;;;5.84;63.24;99769.34;12251841;19;19939;-86
2023/12/10 05:06:11;;;;;;;;;;;7.30;59.80;;;5.87;63.39;99778.72;12258177;19;19930;-86
2023/12/10 05:10:12;;;;;;;;;;;7.40;59.80;;;5.79;63.39;99771.31;12254932;19;19919;-86
2023/12/10 05:14:14;;;;;;;;;;;7.30;59.80;;;5.80;63.54;99774.75;12257236;19;19914;-86
2023/12/10 05:18:15;;;;;;;;;;;7.40;59.90;;;5.89;63.43;99797.63;12256045;19;19918;-86
2023/12/10 05:22:19;;;;;;;;;;;7.30;59.80;;;5.84;63.50;99794.41;12252718;19;19979;-86
2023/12/10 05:26:20;;;;;;;;;;;7.40;59.90;;;5.64;63.45;99754.78;12255786;19;19914;-86
2023/12/10 05:30:22;;;;;;;;;;;7.40;59.80;;;5.98;63.35;99797.16;12252749;19;20380;-86
2023/12/10 05:34:23;;;;;;;;;;;7.40;59.90;;;5.84;63.44;99774.53;12256028;19;19939;-86
2023/12/10 05:38:25;;;;;;;;;;;7.50;59.90;;;6.02;63.28;99803.03;12254283;19;19927;-86
2023/12/10 05:42:27;;;;;;;;;;;7.50;59.80;;;6.01;63.42;99812.56;12250592;19;19914;-86
2023/12/10 05:46:29;;;;;;;;;;;7.50;60.40;;;5.96;63.26;99799.00;12251844;19;19922;-86
2023/12/10 05:50:30;;;;;;;;;;;7.50;59.80;;;5.82;63.21;99775.53;12250023;19;19930;-86
2023/12/10 05:54:32;;;;;;;;;;;7.50;59.80;;;5.94;63.47;99801.69;12252177;19;19923;-86
2023/12/10 05:58:34;;;;;;;;;;;7.50;59.90;;;5.94;63.42;99806.88;12252621;19;19919;-86
2023/12/10 06:02:36;;;;;;;;;;;7.50;59.90;;;6.09;63.26;99825.97;12252960;19;19926;-86
2023/12/10 06:06:38;;;;;;;;;;;7.50;60.10;;;5.96;63.44;99809.34;12252074;19;19915;-86
2023/12/10 06:10:39;;;;;;;;;;;7.60;60.00;;;5.90;63.33;99807.88;12248315;19;19914;-86
2023/12/10 06:14:42;;;;;;;;;;;7.60;60.00;;;5.83;63.28;99801.31;12251505;19;19939;-86
2023/12/10 06:18:43;;;;;;;;;;;7.60;59.80;;;6.02;63.44;99842.72;12250099;19;19919;-86
2023/12/10 06:22:45;;;;;;;;;;;7.60;59.80;;;6.02;63.32;99845.31;12249897;19;19917;-86
2023/12/10 06:26:46;;;;;;;;;;;7.60;59.90;;;6.09;63.32;99859.66;12251043;19;19923;-85
2023/12/10 06:30:48;;;;;;;;;;;7.60;59.90;;;5.98;63.42;99851.59;12249200;19;19918;-86
2023/12/10 06:34:50;;;;;;;;;;;7.60;59.90;;;5.84;63.34;99822.91;12247639;19;19914;-86
2023/12/10 06:38:52;;;;;;;;;;;7.70;60.00;;;6.06;63.37;99856.38;12251332;19;19919;-86
2023/12/10 06:42:54;;;;;;;;;;;7.60;60.00;;;5.85;63.29;99817.63;12250159;19;19915;-85
2023/12/10 06:46:56;;;;;;;;;;;7.70;60.10;;;6.13;63.31;99862.91;12250925;19;19915;-85
2023/12/10 06:50:57;;;;;;;;;;;7.70;59.90;;;5.98;63.44;99849.00;12246915;19;20298;-85
2023/12/10 06:54:59;;;;;;;;;;;7.70;59.80;;;6.18;63.45;99885.13;12249802;19;20371;-86
2023/12/10 06:59:00;;;;;;;;;;;7.70;59.80;;;6.03;63.46;99865.16;12248316;19;20358;-85
2023/12/10 07:03:02;;;;;;;;;;;7.70;59.80;;;6.17;63.37;99900.75;12244127;19;20025;-86
2023/12/10 07:07:06;;;;;;;;;;;7.70;59.70;;;6.08;63.36;99896.03;12246353;19;19915;-85
2023/12/10 07:11:10;;;;;;;;;;;7.70;59.60;;;6.15;63.12;99905.16;12245513;19;19914;-85
2023/12/10 07:15:12;;;;;;;;;;;7.70;59.50;;;6.02;63.32;99891.97;12247609;19;19942;-86
2023/12/10 07:19:14;;;;;;;;;;;7.60;59.40;;;6.07;63.25;99902.13;12247477;19;19914;-87
2023/12/10 07:23:15;;;;;;;;;;;7.60;59.40;;;6.07;63.37;99912.47;12248328;19;19919;-86
2023/12/10 07:27:17;;;;;;;;;;;7.50;59.40;;;5.93;63.26;99898.44;12250618;19;19921;-87
2023/12/10 07:31:18;;;;;;;;;;;7.50;59.40;;;5.98;63.19;99906.84;12245547;19;19938;-85
2023/12/10 07:35:22;;;;;;;;;;;7.50;59.40;;;6.00;63.21;99924.91;12249276;19;19911;-85
2023/12/10 07:39:24;;;;;;;;;;;7.50;59.40;;;5.88;63.31;99915.94;12246996;19;19926;-85
2023/12/10 07:43:25;;;;;;;;;;;7.40;59.30;;;5.96;63.21;99928.56;12247021;19;19919;-86
2023/12/10 07:47:27;;;;;;;;;;;7.40;59.30;;;5.89;63.06;99919.41;12247700;19;19979;-87
2023/12/10 07:51:29;;;;;;;;;;;7.40;59.30;;;5.83;63.16;99923.09;12244410;19;19918;-86
2023/12/10 07:55:31;;;;;;;;;;;7.40;59.20;;;5.62;63.24;99896.50;12246816;19;19947;-86
2023/12/10 07:59:32;;;;;;;;;;;7.30;59.10;;;5.83;63.17;99937.81;12244201;19;19950;-86
2023/12/10 08:03:33;;;;;;;;;;;7.30;59.20;;;5.72;63.40;99923.59;12236864;19;19934;-86
2023/12/10 08:07:35;;;;;;;;;;;7.30;59.30;;;5.69;63.22;99910.81;12245858;19;19958;-86
2023/12/10 08:11:36;;;;;;;;;;;7.30;59.40;;;5.72;63.25;99923.59;12243672;19;19933;-85
2023/12/10 08:15:38;;;;;;;;;;;7.30;59.40;;;5.81;63.25;99947.44;12246992;19;19919;-85
2023/12/10 08:19:39;;;;;;;;;;;7.30;59.50;;;5.68;63.43;99914.31;12254955;19;19953;-86
2023/12/10 08:23:41;;;;;;;;;;;7.30;59.60;;;5.61;63.52;99902.56;12258720;19;19974;-85
2023/12/10 08:27:42;;;;;;;;;;;7.30;59.60;;;5.61;63.48;99888.78;12254857;19;19915;-85
2023/12/10 08:31:44;;;;;;;;;;;7.40;59.80;;;6.02;63.53;99951.56;12255834;19;19907;-85
2023/12/10 08:35:46;;;;;;;;;;;7.50;59.90;;;6.02;63.43;99943.78;12259028;19;19952;-86
2023/12/10 08:39:48;;;;;;;;;;;7.50;60.00;;;6.13;63.34;99964.88;12254544;19;19907;-85
2023/12/10 08:43:49;;;;;;;;;;;7.60;60.30;;;6.16;63.41;99959.53;12258735;19;19918;-85
2023/12/10 08:47:51;;;;;;;;;;;7.70;60.60;;;6.21;63.60;99961.88;12254892;19;19933;-85
2023/12/10 08:51:53;;;;;;;;;;;7.80;60.70;;;6.24;63.47;99958.28;12252652;19;19918;-85
2023/12/10 08:55:54;;;;;;;;;;;7.90;60.90;;;6.43;63.56;99972.88;12256055;19;20238;-85
2023/12/10 09:00:00;;;;;;;;;;;7.90;60.90;;;6.47;63.66;99968.34;12251930;19;19915;-88
2023/12/10 09:04:03;;;;;;;;;;;8.00;61.00;;;6.55;63.55;99966.22;12255604;19;20337;-86
2023/12/10 09:08:06;;;;;;;;;;;8.10;61.20;;;6.69;63.58;99975.06;12252997;19;19922;-85
2023/12/10 09:12:08;;;;;;;;;;;8.20;61.40;;;6.51;63.76;99940.50;12251731;19;19937;-84
2023/12/10 09:16:09;;;;;;;;;;;8.30;61.50;;;6.85;63.74;99981.13;12253948;19;19943;-85
2023/12/10 09:20:11;;;;;;;;;;;8.40;61.60;;;6.95;63.81;99982.34;12252040;19;19914;-83
2023/12/10 09:24:12;;;;;;;;;;;8.50;61.80;;;7.03;63.83;99990.56;12253905;19;19915;-83
2023/12/10 09:28:14;;;;;;;;;;;8.60;61.80;;;7.07;63.81;99989.50;12252228;19;19946;-83
2023/12/10 09:32:16;;;;;;;;;;;8.70;62.00;;;7.01;63.82;99965.59;12248322;19;19967;-86
2023/12/10 09:36:18;;;;;;;;;;;8.80;62.10;;;7.11;63.71;99958.19;12254114;19;19914;-86
2023/12/10 09:40:20;;;;;;;;;;;8.90;62.30;;;7.41;64.00;100000.66;12250745;19;19923;-86
2023/12/10 09:44:22;;;;;;;;;;;9.00;62.50;;;7.55;63.97;100005.13;12253278;19;19923;-86
2023/12/10 09:48:23;;;;;;;;;;;9.10;62.80;;;7.53;63.86;99988.75;12252011;19;19935;-85
2023/12/10 09:52:25;;;;;;;;;;;9.20;63.10;;;7.73;63.83;99998.09;12246791;19;20322;-86
2023/12/10 09:56:27;;;;;;;;;;;9.30;62.90;;;7.73;63.84;99991.13;12252046;19;19919;-86
2023/12/10 10:00:28;;;;;;;;;;;9.40;63.00;;;7.94;63.85;99999.50;12250160;19;19914;-86
2023/12/10 10:04:30;;;;;;;;;;;9.50;63.10;;;8.03;63.78;99999.91;12251944;19;19914;-86
2023/12/10 10:08:32;;;;;;;;;;;9.60;63.10;;;8.05;64.09;99991.09;12250115;19;19923;-86
2023/12/10 10:12:33;;;;;;;;;;;9.70;63.10;;;8.12;63.89;99991.56;12246113;19;19925;-86
2023/12/10 10:16:35;;;;;;;;;;;9.80;63.00;;;7.90;64.06;99953.78;12252677;19;19910;-86
2023/12/10 10:20:38;;;;;;;;;;;9.90;63.10;;;8.34;63.97;100010.22;12248023;19;19921;-86
2023/12/10 10:24:40;;;;;;;;;;;9.90;63.20;;;8.43;64.02;100010.66;12249313;19;19919;-86
2023/12/10 10:28:41;;;;;;;;;;;10.00;63.30;;;8.39;63.90;99992.59;12241644;19;19984;-86
2023/12/10 10:32:43;;;;;;;;;;;10.10;63.50;;;8.44;64.04;99991.53;12248989;19;19978;-87
2023/12/10 10:36:44;;;;;;;;;;;10.10;63.50;;;8.63;64.00;100008.56;12251374;19;19922;-86
2023/12/10 10:40:49;;;;;;;;;;;10.20;63.60;;;8.67;63.99;100006.63;12247543;19;20440;-86
2023/12/10 10:44:51;;;;;;;;;;;10.30;63.70;;;8.79;63.87;100012.88;12247764;19;19986;-86
2023/12/10 10:48:52;;;;;;;;;;;10.30;64.00;;;8.81;63.90;100011.84;12249515;19;19914;-86
2023/12/10 10:52:55;;;;;;;;;;;10.40;63.90;;;8.90;63.87;100009.63;12248663;19;20284;-86
2023/12/10 10:56:57;;;;;;;;;;;10.50;63.90;;;9.00;64.13;100024.59;12249179;19;19971;-87
2023/12/10 11:00:59;;;;;;;;;;;10.50;64.20;;;9.04;64.05;100014.84;12247763;19;19909;-87
2023/12/10 11:05:00;;;;;;;;;;;10.60;64.30;;;9.06;63.93;100011.22;12249330;19;19943;-86
2023/12/10 11:09:02;;;;;;;;;;;10.60;64.00;;;9.10;64.08;100001.47;12244813;19;20005;-86
2023/12/10 11:13:04;;;;;;;;;;;10.70;64.40;;;9.19;64.33;100013.91;12249582;19;19923;-86
2023/12/10 11:17:09;;;;;;;;;;;10.70;64.00;;;9.25;64.03;100020.53;12246405;19;19939;-86
2023/12/10 11:21:10;;;;;;;;;;;10.80;63.90;;;9.22;64.04;100010.28;12245350;19;20006;-86
2023/12/10 11:25:12;;;;;;;;;;;10.80;63.80;;;9.25;63.88;100005.72;12245383;19;19938;-86
2023/12/10 11:29:14;;;;;;;;;;;10.90;63.60;;;9.39;64.14;100019.66;12246482;19;20325;-87
2023/12/10 11:33:16;;;;;;;;;;;10.80;63.50;;;9.37;63.95;100016.31;12246037;19;19970;-86
2023/12/10 11:37:18;;;;;;;;;;;10.90;63.60;;;9.39;64.10;100009.25;12247247;19;19978;-87
2023/12/10 11:41:19;;;;;;;;;;;11.00;63.50;;;9.46;64.14;100014.00;12243944;19;19918;-86
2023/12/10 11:45:20;;;;;;;;;;;10.90;63.60;;;9.21;63.97;99962.56;12246692;19;19907;-86
2023/12/10 11:49:22;;;;;;;;;;;11.00;63.60;;;9.41;63.89;99994.34;12244530;19;19923;-86
2023/12/10 11:53:24;;;;;;;;;;;11.00;63.50;;;9.51;64.06;100011.94;12244942;19;20254;-88
2023/12/10 11:57:26;;;;;;;;;;;11.00;63.40;;;9.47;63.98;100001.78;12244649;19;20334;-87
2023/12/10 12:01:27;;;;;;;;;;;11.00;63.50;;;9.57;64.03;100005.50;12244610;19;19985;-86
2023/12/10 12:05:29;;;;;;;;;;;11.00;63.60;;;9.58;64.13;100007.16;12246584;19;19918;-87
2023/12/10 12:09:31;;;;;;;;;;;11.10;63.90;;;9.60;64.08;100002.69;12244328;19;19994;-87
2023/12/10 12:13:32;;;;;;;;;;;11.10;64.00;;;9.59;64.01;100001.03;12243994;19;20330;-86
2023/12/10 12:17:35;;;;;;;;;;;11.10;64.10;;;9.46;64.08;99969.69;12245721;19;20325;-87
2023/12/10 12:21:36;;;;;;;;;;;11.10;63.90;;;9.66;63.89;99994.47;12245517;19;19911;-86
2023/12/10 12:25:38;;;;;;;;;;;11.10;63.90;;;9.64;64.04;99974.66;12247381;19;19931;-87
2023/12/10 12:29:39;;;;;;;;;;;11.10;64.00;;;9.69;63.94;99989.09;12242701;19;19919;-86
2023/12/10 12:33:41;;;;;;;;;;;11.20;64.00;;;9.60;64.19;99955.78;12243094;19;20333;-87
2023/12/10 12:37:43;;;;;;;;;;;11.20;63.90;;;9.71;64.22;99966.34;12244650;19;19914;-87
2023/12/10 12:41:46;;;;;;;;;;;11.20;64.50;;;9.67;64.18;99959.69;12240312;19;19921;-87
2023/12/10 12:45:48;;;;;;;;;;;11.20;65.00;;;9.78;64.09;99969.41;12244451;19;20337;-86
2023/12/10 12:49:49;;;;;;;;;;;11.30;65.20;;;9.67;64.03;99948.41;12242345;19;19911;-87
2023/12/10 12:53:51;;;;;;;;;;;11.30;65.20;;;9.73;64.03;99954.06;12240108;19;20325;-87
2023/12/10 12:57:52;;;;;;;;;;;11.20;64.70;;;9.63;64.05;99926.06;12243227;19;19925;-87
2023/12/10 13:01:54;;;;;;;;;;;11.30;64.80;;;9.88;64.11;99972.25;12240618;19;19926;-87
2023/12/10 13:05:55;;;;;;;;;;;11.30;64.40;;;9.88;64.04;99972.25;12257912;19;19918;-88
2023/12/10 13:09:57;;;;;;;;;;;11.30;64.20;;;9.74;64.06;99942.69;12251769;19;19919;-88
2023/12/10 13:13:58;;;;;;;;;;;11.40;64.20;;;9.88;64.15;99972.25;12255266;19;19919;-88
2023/12/10 13:18:00;;;;;;;;;;;11.30;64.00;;;9.93;64.21;99967.59;12254502;19;19961;-88
2023/12/10 13:22:02;;;;;;;;;;;11.30;63.80;;;9.91;64.10;99966.84;12248526;19;19923;-88
2023/12/10 13:26:07;;;;;;;;;;;11.40;63.80;;;9.95;64.18;99971.75;12248791;19;21645;-88
2023/12/10 13:30:09;;;;;;;;;;;11.30;63.80;;;9.90;63.93;99962.56;12249774;19;19953;-88
2023/12/10 13:34:10;;;;;;;;;;;11.40;64.10;;;9.95;64.03;99974.38;12252721;19;19911;-88
2023/12/10 13:38:12;;;;;;;;;;;11.40;64.10;;;9.88;64.02;99956.59;12253223;19;20429;-88
2023/12/10 13:42:14;;;;;;;;;;;11.40;64.30;;;9.67;64.07;99917.97;12247924;19;19978;-88
2023/12/10 13:46:15;;;;;;;;;;;11.40;64.40;;;9.83;64.01;99953.47;12254183;19;19939;-87
2023/12/10 13:50:16;;;;;;;;;;;11.30;64.20;;;9.81;64.04;99957.97;12247438;19;19922;-88
2023/12/10 13:54:18;;;;;;;;;;;11.40;64.30;;;9.49;63.97;99913.94;12253140;19;19926;-88
2023/12/10 13:58:19;;;;;;;;;;;11.30;64.00;;;9.76;64.05;99950.44;12252173;19;19918;-88
2023/12/10 14:02:21;;;;;;;;;;;11.40;64.20;;;9.86;64.08;99974.97;12249572;19;19915;-88
2023/12/10 14:06:23;;;;;;;;;;;11.40;64.10;;;9.96;64.17;99998.69;12249479;19;19915;-88
2023/12/10 14:10:24;;;;;;;;;;;11.40;64.00;;;9.78;64.04;99961.59;12250204;19;20705;-87
2023/12/10 14:14:26;;;;;;;;;;;11.40;63.90;;;9.94;64.15;99992.75;12248893;19;20581;-88
2023/12/10 14:18:27;;;;;;;;;;;11.40;64.10;;;9.74;64.02;99947.91;12253201;19;19915;-87
2023/12/10 14:22:29;;;;;;;;;;;11.40;64.00;;;10.03;64.15;99992.13;12245716;19;19927;-87
2023/12/10 14:26:31;;;;;;;;;;;11.40;64.40;;;9.98;64.13;99992.44;12252869;19;19919;-87
2023/12/10 14:30:32;;;;;;;;;;;11.40;64.20;;;9.95;64.20;99983.97;12249461;19;19917;-88
2023/12/10 14:34:34;;;;;;;;;;;11.40;64.30;;;9.81;64.18;99968.38;12252294;19;19919;-88
2023/12/10 14:38:36;;;;;;;;;;;11.40;64.20;;;9.94;64.13;99984.94;12250511;19;19940;-88
2023/12/10 14:42:37;;;;;;;;;;;11.40;64.40;;;9.93;64.25;99988.44;12249662;19;19911;-87
2023/12/10 14:46:39;;;;;;;;;;;11.40;64.30;;;9.96;64.28;99989.09;12249726;19;19915;-87
2023/12/10 14:50:40;;;;;;;;;;;11.40;64.40;;;9.79;64.12;99962.44;12245664;19;19926;-87
2023/12/10 14:54:41;;;;;;;;;;;11.40;64.40;;;9.75;64.07;99967.84;12250888;19;19915;-87
2023/12/10 14:58:43;;;;;;;;;;;11.40;64.50;;;9.95;64.25;99997.84;12248774;19;19914;-87
2023/12/10 15:02:44;;;;;;;;;;;11.40;64.90;;;10.02;64.17;100013.09;12249393;19;19953;-87
2023/12/10 15:06:47;;;;;;;;;;;11.40;64.50;;;9.92;64.14;99999.81;12248702;19;19990;-87
2023/12/10 15:10:48;;;;;;;;;;;11.40;64.50;;;9.74;64.12;99987.00;12246820;19;19974;-87
2023/12/10 15:14:50;;;;;;;;;;;11.40;64.50;;;9.89;64.10;99997.41;12249041;19;19929;-87
2023/12/10 15:18:51;;;;;;;;;;;11.40;64.40;;;10.00;64.17;100017.59;12249365;19;19919;-89
2023/12/10 15:22:53;;;;;;;;;;;11.40;64.60;;;10.00;64.21;100022.81;12247168;19;19926;-87
2023/12/10 15:26:55;;;;;;;;;;;11.40;64.50;;;9.87;64.36;100007.94;12246990;19;19922;-86
2023/12/10 15:30:56;;;;;;;;;;;11.50;64.70;;;9.80;64.18;99998.00;12246396;19;19925;-87
2023/12/10 15:34:59;;;;;;;;;;;11.50;64.60;;;10.05;64.07;100028.56;12247945;19;19919;-87
2023/12/10 15:39:00;;;;;;;;;;;11.40;64.60;;;9.98;64.27;100021.13;12247322;19;19923;-86
2023/12/10 15:43:02;;;;;;;;;;;11.40;64.40;;;10.04;64.22;100035.53;12245879;19;19988;-88
2023/12/10 15:47:03;;;;;;;;;;;11.50;64.50;;;10.12;64.14;100053.31;12247120;19;19922;-86
2023/12/10 15:51:05;;;;;;;;;;;11.50;64.40;;;10.08;64.24;100041.41;12245140;19;19926;-86
2023/12/10 15:55:07;;;;;;;;;;;11.50;64.40;;;10.02;64.32;100026.13;12246746;19;19911;-86
2023/12/10 15:59:08;;;;;;;;;;;11.50;64.40;;;10.09;64.21;100045.69;12247067;19;20169;-86
2023/12/10 16:03:10;;;;;;;;;;;11.50;64.30;;;10.10;64.09;100045.59;12244015;19;19923;-87
2023/12/10 16:07:12;;;;;;;;;;;11.50;64.20;;;10.11;64.22;100049.03;12246840;19;19983;-86
2023/12/10 16:11:13;;;;;;;;;;;11.50;64.30;;;10.13;64.04;100047.19;12242844;19;19918;-86
2023/12/10 16:15:15;;;;;;;;;;;11.50;64.20;;;10.11;64.14;100046.44;12244759;19;19955;-87
2023/12/10 16:19:16;;;;;;;;;;;11.50;64.30;;;10.20;64.11;100066.69;12246103;19;19928;-86
2023/12/10 16:23:18;;;;;;;;;;;11.50;64.30;;;10.18;64.30;100052.94;12244732;19;19943;-86
2023/12/10 16:27:19;;;;;;;;;;;11.60;64.20;;;9.90;64.08;100018.16;12246680;19;19987;-87
2023/12/10 16:31:21;;;;;;;;;;;11.50;64.10;;;9.98;64.26;100020.28;12241469;19;19910;-87
2023/12/10 16:35:22;;;;;;;;;;;11.60;64.20;;;10.14;64.25;100054.88;12245608;19;19987;-86
2023/12/10 16:39:24;;;;;;;;;;;11.50;64.30;;;10.09;64.12;100046.50;12250470;19;19911;-86
2023/12/10 16:43:25;;;;;;;;;;;11.60;64.20;;;10.21;64.10;100071.00;12256419;19;19970;-86
2023/12/10 16:47:26;;;;;;;;;;;11.60;64.10;;;10.13;64.10;100061.06;12253636;19;20326;-86
2023/12/10 16:51:28;;;;;;;;;;;11.50;64.10;;;10.13;64.38;100076.72;12243672;19;20000;-86
2023/12/10 16:55:29;;;;;;;;;;;11.60;64.00;;;10.14;64.45;100073.16;12256646;19;19919;-87
2023/12/10 16:59:31;;;;;;;;;;;11.60;64.10;;;10.16;64.19;100080.91;12253545;19;19992;-87
2023/12/10 17:03:32;;;;;;;;;;;11.60;64.10;;;10.15;64.36;100081.81;12254333;19;19959;-87
2023/12/10 17:07:34;;;;;;;;;;;11.60;64.20;;;10.14;64.14;100082.75;12256547;19;19914;-86
2023/12/10 17:11:35;;;;;;;;;;;11.60;64.10;;;10.09;64.17;100083.03;12251758;19;19937;-86
2023/12/10 17:15:37;;;;;;;;;;;11.60;64.20;;;10.18;64.17;100099.91;12255112;19;19915;-87
2023/12/10 17:19:38;;;;;;;;;;;11.50;64.10;;;10.03;64.38;100074.78;12252611;19;20041;-87
2023/12/10 17:23:40;;;;;;;;;;;11.50;64.00;;;9.95;64.34;100059.59;12254427;19;19923;-87
2023/12/10 17:27:42;;;;;;;;;;;11.50;64.30;;;10.09;64.27;100083.03;12254519;19;19923;-87
2023/12/10 17:31:43;;;;;;;;;;;11.50;64.10;;;10.08;64.37;100072.72;12249331;19;19925;-87
2023/12/10 17:35:45;;;;;;;;;;;11.50;64.30;;;10.14;64.23;100091.41;12252789;19;20253;-86
2023/12/10 17:39:46;;;;;;;;;;;11.50;64.20;;;10.08;64.25;100064.91;12252004;19;20297;-86
2023/12/10 17:43:48;;;;;;;;;;;11.50;64.00;;;10.12;64.33;100084.63;12253642;19;19927;-86
2023/12/10 17:47:50;;;;;;;;;;;11.50;64.10;;;10.19;64.33;100089.34;12250115;19;19914;-86
2023/12/10 17:51:51;;;;;;;;;;;11.50;64.10;;;10.13;64.26;100074.09;12246863;19;19915;-86
2023/12/10 17:55:53;;;;;;;;;;;11.60;64.70;;;10.20;64.24;100091.00;12251846;19;19918;-86
2023/12/10 17:59:55;;;;;;;;;;;11.60;64.00;;;10.18;64.18;100079.03;12251259;19;19978;-86
2023/12/10 18:03:56;;;;;;;;;;;11.60;64.10;;;10.14;64.26;100078.38;12252504;19;20420;-87
2023/12/10 18:07:58;;;;;;;;;;;11.60;63.90;;;10.11;64.37;100059.47;12249636;19;20242;-87
2023/12/10 18:12:00;;;;;;;;;;;11.60;64.00;;;10.16;64.29;100063.47;12247762;19;19914;-87
2023/12/10 18:16:01;;;;;;;;;;;11.50;63.80;;;10.23;64.35;100069.09;12250833;19;19922;-86
2023/12/10 18:20:03;;;;;;;;;;;11.60;63.90;;;10.17;64.25;100062.50;12250559;19;19911;-87
2023/12/10 18:24:04;;;;;;;;;;;11.60;63.70;;;10.15;64.12;100040.06;12251583;19;20637;-86
2023/12/10 18:28:06;;;;;;;;;;;11.60;63.70;;;10.19;64.15;100039.78;12252103;19;19978;-86
2023/12/10 18:32:07;;;;;;;;;;;11.60;63.60;;;10.28;64.32;100055.81;12243653;19;19928;-86
2023/12/10 18:36:09;;;;;;;;;;;11.60;63.60;;;10.22;64.41;100038.75;12251848;19;19925;-86